createdAt,value
2022-09-10T00:00:23.389Z,59.38
2022-09-10T00:02:56.295Z,59.64
2022-09-10T00:05:30.262Z,59.82
2022-09-10T00:08:04.707Z,60.02
2022-09-10T00:10:47.962Z,60.09
2022-09-10T00:13:23.401Z,60.08
2022-09-10T00:15:57.186Z,60.16
2022-09-10T00:18:29.891Z,60.27
2022-09-10T00:21:05.104Z,60.32
2022-09-10T00:23:38.834Z,60.34
2022-09-10T00:26:22.069Z,60.44
2022-09-10T00:28:58.633Z,60.44
2022-09-10T00:31:32.916Z,60.51
2022-09-10T00:34:07.117Z,60.62
2022-09-10T00:36:41.719Z,60.88
2022-09-10T00:39:18.655Z,61.01
2022-09-10T00:41:52.862Z,61.18
2022-09-10T00:44:46.264Z,61.27
2022-09-10T00:47:26.669Z,61.38
2022-09-10T00:50:04.038Z,61.51
2022-09-10T00:52:39.908Z,61.58
2022-09-10T00:55:14.103Z,61.71
2022-09-10T00:57:47.728Z,61.75
2022-09-10T01:00:20.523Z,61.81
2022-09-10T01:02:53.926Z,61.92
2022-09-10T01:05:29.578Z,62.02
2022-09-10T01:08:03.157Z,62.13
2022-09-10T01:10:41.694Z,62.21
2022-09-10T01:13:44.465Z,62.32
2022-09-10T01:16:27.986Z,62.41
2022-09-10T01:19:09.261Z,62.52
2022-09-10T01:22:08.194Z,62.59
2022-09-10T01:25:01.027Z,62.74
2022-09-10T01:27:55.009Z,62.77
2022-09-10T01:30:41.510Z,62.97
2022-09-10T01:33:38.153Z,63.16
2022-09-10T01:36:15.573Z,63.25
2022-09-10T01:38:51.070Z,63.41
2022-09-10T01:41:26.593Z,63.53
2022-09-10T01:44:01.755Z,63.67
2022-09-10T01:46:47.934Z,63.76
2022-09-10T01:49:39.995Z,63.84
2022-09-10T01:52:43.720Z,63.89
2022-09-10T01:55:54.234Z,64.00
2022-09-10T01:58:45.012Z,64.08
2022-09-10T02:01:47.697Z,64.11
2022-09-10T02:04:21.990Z,64.10
2022-09-10T02:06:54.053Z,64.05
2022-09-10T02:09:28.069Z,64.08
2022-09-10T02:12:02.465Z,64.06
2022-09-10T02:14:58.134Z,63.96
2022-09-10T02:17:41.900Z,64.02
2022-09-10T02:20:16.235Z,64.09
2022-09-10T02:22:53.733Z,64.13
2022-09-10T02:25:30.321Z,64.18
2022-09-10T02:28:03.412Z,64.31
2022-09-10T02:30:37.345Z,64.32
2022-09-10T02:33:12.296Z,64.36
2022-09-10T02:35:48.035Z,64.42
2022-09-10T02:38:21.746Z,64.49
2022-09-10T02:40:56.276Z,64.55
2022-09-10T02:43:30.122Z,64.67
2022-09-10T02:46:08.494Z,64.77
2022-09-10T02:48:42.270Z,64.87
2022-09-10T02:51:15.101Z,64.89
2022-09-10T02:53:48.030Z,64.94
2022-09-10T02:56:21.202Z,64.95
2022-09-10T02:58:54.450Z,64.98
2022-09-10T03:01:28.876Z,65.00
2022-09-10T03:04:06.935Z,65.07
2022-09-10T03:06:40.398Z,65.16
2022-09-10T03:09:13.559Z,65.20
2022-09-10T03:11:46.867Z,65.29
2022-09-10T03:14:21.793Z,65.35
2022-09-10T03:16:55.884Z,65.38
2022-09-10T03:19:29.495Z,65.47
2022-09-10T03:22:03.349Z,65.59
2022-09-10T03:24:37.601Z,65.54
2022-09-10T03:27:11.470Z,65.42
2022-09-10T03:29:44.612Z,65.31
2022-09-10T03:32:18.100Z,65.22
2022-09-10T03:34:50.849Z,65.29
2022-09-10T03:37:24.493Z,65.14
2022-09-10T03:39:58.845Z,64.99
2022-09-10T03:42:31.885Z,64.83
2022-09-10T03:45:05.466Z,64.77
2022-09-10T03:47:39.753Z,64.59
2022-09-10T03:50:12.388Z,64.43
2022-09-10T03:52:46.485Z,64.28
2022-09-10T03:55:19.453Z,64.33
2022-09-10T03:57:52.445Z,64.21
2022-09-10T04:00:25.106Z,64.21
2022-09-10T04:02:58.536Z,64.12
2022-09-10T04:05:32.629Z,63.96
2022-09-10T04:08:07.708Z,63.95
2022-09-10T04:10:42.317Z,63.63
2022-09-10T04:13:16.460Z,63.49
2022-09-10T04:15:49.623Z,63.37
2022-09-10T04:18:22.501Z,63.24
2022-09-10T04:20:57.811Z,63.16
2022-09-10T04:23:30.745Z,62.97
2022-09-10T04:26:20.735Z,62.51
2022-09-10T04:28:55.090Z,62.48
2022-09-10T04:31:27.775Z,62.26
2022-09-10T04:34:02.493Z,62.10
2022-09-10T04:36:37.271Z,61.98
2022-09-10T04:39:11.825Z,61.75
2022-09-10T04:41:45.537Z,61.20
2022-09-10T04:44:20.435Z,60.94
2022-09-10T04:46:53.657Z,60.33
2022-09-10T04:49:27.793Z,60.19
2022-09-10T04:52:00.575Z,59.61
2022-09-10T04:54:34.072Z,59.41
2022-09-10T04:57:09.376Z,58.60
2022-09-10T04:59:42.934Z,58.11
2022-09-10T05:02:16.616Z,57.62
2022-09-10T05:04:50.979Z,57.42
2022-09-10T05:07:23.718Z,56.98
2022-09-10T05:09:57.182Z,56.53
2022-09-10T05:12:31.680Z,56.21
2022-09-10T05:15:07.663Z,55.81
2022-09-10T05:17:41.365Z,55.48
2022-09-10T05:20:15.038Z,55.27
2022-09-10T05:22:49.422Z,55.14
2022-09-10T05:25:23.298Z,54.89
2022-09-10T05:27:56.525Z,54.48
2022-09-10T05:30:31.512Z,54.37
2022-09-10T05:33:05.342Z,54.33
2022-09-10T05:35:39.049Z,54.22
2022-09-10T05:38:15.101Z,53.91
2022-09-10T05:40:49.274Z,53.72
2022-09-10T05:43:22.733Z,53.56
2022-09-10T05:45:56.331Z,53.63
2022-09-10T05:48:29.657Z,53.55
2022-09-10T05:51:03.469Z,53.56
2022-09-10T05:53:36.340Z,53.39
2022-09-10T05:56:10.289Z,53.05
2022-09-10T05:58:45.589Z,53.11
2022-09-10T06:01:20.075Z,53.16
2022-09-10T06:03:53.089Z,52.91
2022-09-10T06:06:28.556Z,52.79
2022-09-10T06:09:02.863Z,52.56
2022-09-10T06:11:53.627Z,52.29
2022-09-10T06:14:28.024Z,52.47
2022-09-10T06:17:01.406Z,52.37
2022-09-10T06:19:36.246Z,52.14
2022-09-10T06:22:11.073Z,51.71
2022-09-10T06:24:47.407Z,51.14
2022-09-10T06:27:20.471Z,51.46
2022-09-10T06:29:53.823Z,51.28
2022-09-10T06:32:28.574Z,51.05
2022-09-10T06:35:01.496Z,50.98
2022-09-10T06:37:36.071Z,50.63
2022-09-10T06:40:11.301Z,50.69
2022-09-10T06:42:44.583Z,49.60
2022-09-10T06:45:20.026Z,49.34
2022-09-10T06:50:33.864Z,48.96
2022-09-10T06:53:07.275Z,49.21
2022-09-10T06:55:40.112Z,48.82
2022-09-10T06:58:13.074Z,48.60
2022-09-10T07:00:47.805Z,48.18
2022-09-10T07:03:23.298Z,48.04
2022-09-10T07:05:57.133Z,48.04
2022-09-10T07:08:31.650Z,47.39
2022-09-10T07:11:08.263Z,47.20
2022-09-10T07:13:42.147Z,46.80
2022-09-10T07:16:16.866Z,46.74
2022-09-10T07:18:57.820Z,46.40
2022-09-10T07:21:32.969Z,46.30
2022-09-10T07:24:07.856Z,45.75
2022-09-10T07:26:41.970Z,45.83
2022-09-10T07:29:15.778Z,45.46
2022-09-10T07:31:48.906Z,45.37
2022-09-10T07:34:25.625Z,44.38
2022-09-10T07:36:58.628Z,43.19
2022-09-10T07:39:31.656Z,43.35
2022-09-10T07:42:04.719Z,42.98
2022-09-10T07:44:39.137Z,42.17
2022-09-10T07:47:12.124Z,42.46
2022-09-10T07:49:45.294Z,42.21
2022-09-10T07:52:18.977Z,42.47
2022-09-10T07:54:53.856Z,42.88
2022-09-10T07:57:27.010Z,43.41
2022-09-10T08:00:01.114Z,43.20
2022-09-10T08:02:36.267Z,42.83
2022-09-10T08:05:10.924Z,42.52
2022-09-10T08:07:44.200Z,42.38
2022-09-10T08:10:17.476Z,42.72
2022-09-10T08:12:51.026Z,42.86
2022-09-10T08:15:24.452Z,42.93
2022-09-10T08:18:00.861Z,42.93
2022-09-10T08:20:34.256Z,42.45
2022-09-10T08:23:08.380Z,42.19
2022-09-10T08:25:42.058Z,42.30
2022-09-10T08:28:15.733Z,42.06
2022-09-10T08:31:04.697Z,42.01
2022-09-10T08:33:41.000Z,41.55
2022-09-10T08:36:15.285Z,41.86
2022-09-10T08:38:50.531Z,41.67
2022-09-10T08:41:40.659Z,41.90
2022-09-10T08:44:29.058Z,41.71
2022-09-10T08:47:20.564Z,41.75
2022-09-10T08:49:58.828Z,41.34
2022-09-10T08:52:37.743Z,41.47
2022-09-10T08:55:25.147Z,41.48
2022-09-10T08:58:07.193Z,41.06
2022-09-10T09:00:43.237Z,41.03
2022-09-10T09:03:42.282Z,40.96
2022-09-10T09:06:25.687Z,40.90
2022-09-10T09:09:02.110Z,40.89
2022-09-10T09:11:44.340Z,40.85
2022-09-10T09:14:43.043Z,41.13
2022-09-10T09:17:40.118Z,40.54
2022-09-10T09:20:41.746Z,40.35
2022-09-10T09:23:23.855Z,40.18
2022-09-10T09:26:02.598Z,40.36
2022-09-10T09:29:10.923Z,40.36
2022-09-10T09:31:49.607Z,40.28
2022-09-10T09:34:51.112Z,39.62
2022-09-10T09:37:31.449Z,40.40
2022-09-10T09:40:23.738Z,39.98
2022-09-10T09:43:04.397Z,39.69
2022-09-10T09:45:47.514Z,39.49
2022-09-10T09:48:22.754Z,39.40
2022-09-10T09:51:01.932Z,38.89
2022-09-10T09:53:35.797Z,39.02
2022-09-10T09:56:15.908Z,39.41
2022-09-10T09:58:51.196Z,39.58
2022-09-10T10:01:26.145Z,39.59
2022-09-10T10:04:03.409Z,39.18
2022-09-10T10:06:47.898Z,38.90
2022-09-10T10:09:24.180Z,38.76
2022-09-10T10:12:00.080Z,38.91
2022-09-10T10:14:43.386Z,38.87
2022-09-10T10:17:33.073Z,38.75
2022-09-10T10:20:14.026Z,38.64
2022-09-10T10:22:49.961Z,38.66
2022-09-10T10:25:38.973Z,38.72
2022-09-10T10:28:24.771Z,38.42
2022-09-10T10:31:00.963Z,38.17
2022-09-10T10:33:35.608Z,37.94
2022-09-10T10:36:21.931Z,37.74
2022-09-10T10:39:11.022Z,37.69
2022-09-10T10:42:15.822Z,37.92
2022-09-10T10:45:05.644Z,38.38
2022-09-10T10:47:49.821Z,38.16
2022-09-10T10:50:39.390Z,37.80
2022-09-10T10:53:49.081Z,37.67
2022-09-10T10:56:48.347Z,38.16
2022-09-10T10:59:53.575Z,38.00
2022-09-10T11:02:50.734Z,37.56
2022-09-10T11:05:45.365Z,37.71
2022-09-10T11:08:39.215Z,37.38
2022-09-10T11:11:19.831Z,37.47
2022-09-10T11:14:27.634Z,37.77
2022-09-10T11:17:05.882Z,37.74
2022-09-10T11:19:53.324Z,37.62
2022-09-10T11:22:27.246Z,37.21
2022-09-10T11:25:19.594Z,36.91
2022-09-10T11:28:12.533Z,36.86
2022-09-10T11:30:50.892Z,36.89
2022-09-10T11:33:49.609Z,36.92
2022-09-10T11:36:35.967Z,37.04
2022-09-10T11:39:21.874Z,37.08
2022-09-10T11:41:55.963Z,36.55
2022-09-10T11:44:47.800Z,36.50
2022-09-10T11:47:28.017Z,36.48
2022-09-10T11:50:07.389Z,36.58
2022-09-10T11:52:40.644Z,36.44
2022-09-10T11:55:18.654Z,36.58
2022-09-10T11:58:01.324Z,36.72
2022-09-10T12:00:37.931Z,36.10
2022-09-10T12:03:33.781Z,35.97
2022-09-10T12:06:27.047Z,36.27
2022-09-10T12:09:13.613Z,36.12
2022-09-10T12:12:09.886Z,36.01
2022-09-10T12:14:43.405Z,36.03
2022-09-10T12:17:27.614Z,36.02
2022-09-10T12:20:01.600Z,35.82
2022-09-10T12:22:41.628Z,35.72
2022-09-10T12:25:28.297Z,35.86
2022-09-10T12:28:03.178Z,35.62
2022-09-10T12:30:41.735Z,35.59
2022-09-10T12:33:24.238Z,35.37
2022-09-10T12:35:58.191Z,35.27
2022-09-10T12:39:08.977Z,35.11
2022-09-10T12:41:47.134Z,35.03
2022-09-10T12:44:39.359Z,35.42
2022-09-10T12:47:28.806Z,35.21
2022-09-10T12:50:08.987Z,35.31
2022-09-10T12:52:55.025Z,35.37
2022-09-10T12:56:02.497Z,35.35
2022-09-10T12:58:46.641Z,35.31
2022-09-10T13:01:49.633Z,35.59
2022-09-10T13:04:39.141Z,35.24
2022-09-10T13:07:40.029Z,35.38
2022-09-10T13:10:29.191Z,35.30
2022-09-10T13:13:05.845Z,35.35
2022-09-10T13:15:40.335Z,35.47
2022-09-10T13:18:29.354Z,35.47
2022-09-10T13:21:22.233Z,35.40
2022-09-10T13:23:59.156Z,35.47
2022-09-10T13:26:52.700Z,35.44
2022-09-10T13:29:40.480Z,35.08
2022-09-10T13:32:33.085Z,35.13
2022-09-10T13:35:31.554Z,34.93
2022-09-10T13:38:23.808Z,34.43
2022-09-10T13:41:13.579Z,35.07
2022-09-10T13:43:51.293Z,35.01
2022-09-10T13:46:37.098Z,34.47
2022-09-10T13:49:47.655Z,34.55
2022-09-10T13:52:25.287Z,34.59
2022-09-10T13:54:59.597Z,34.52
2022-09-10T13:57:44.330Z,34.45
2022-09-10T14:00:26.021Z,34.43
2022-09-10T14:03:02.019Z,34.36
2022-09-10T14:05:39.541Z,34.22
2022-09-10T14:08:41.549Z,34.24
2022-09-10T14:11:18.675Z,34.26
2022-09-10T14:13:59.080Z,34.25
2022-09-10T14:16:36.733Z,34.39
2022-09-10T14:19:19.810Z,34.17
2022-09-10T14:21:53.666Z,34.31
2022-09-10T14:24:33.818Z,34.27
2022-09-10T14:27:27.951Z,34.25
2022-09-10T14:30:30.222Z,34.28
2022-09-10T14:33:36.885Z,34.38
2022-09-10T14:36:31.754Z,34.20
2022-09-10T14:39:22.630Z,34.08
2022-09-10T14:42:30.099Z,33.95
2022-09-10T14:45:03.725Z,34.02
2022-09-10T14:47:38.622Z,33.62
2022-09-10T14:50:34.907Z,33.55
2022-09-10T14:53:08.089Z,33.48
2022-09-10T14:55:41.857Z,33.45
2022-09-10T14:58:14.931Z,33.18
2022-09-10T15:00:48.249Z,33.05
2022-09-10T15:03:21.270Z,32.70
2022-09-10T15:05:54.113Z,32.87
2022-09-10T15:08:27.184Z,33.07
2022-09-10T15:11:00.836Z,32.76
2022-09-10T15:13:35.030Z,32.77
2022-09-10T15:16:07.735Z,32.58
2022-09-10T15:18:41.833Z,32.77
2022-09-10T15:21:16.793Z,32.71
2022-09-10T15:23:49.510Z,32.76
2022-09-10T15:26:22.458Z,32.79
2022-09-10T15:28:55.610Z,32.67
2022-09-10T15:31:32.469Z,32.49
2022-09-10T15:34:03.794Z,32.46
2022-09-10T15:36:39.071Z,32.73
2022-09-10T15:39:13.950Z,32.59
2022-09-10T15:41:47.474Z,32.65
2022-09-10T15:44:20.303Z,32.52
2022-09-10T15:46:53.404Z,32.64
2022-09-10T15:49:26.980Z,32.62
2022-09-10T15:52:00.576Z,32.60
2022-09-10T15:54:34.289Z,32.50
2022-09-10T15:57:07.194Z,32.56
2022-09-10T15:59:41.463Z,32.48
2022-09-10T16:02:14.692Z,32.38
2022-09-10T16:04:48.764Z,32.40
2022-09-10T16:07:22.060Z,32.49
2022-09-10T16:09:55.478Z,32.44
2022-09-10T16:12:28.503Z,32.52
2022-09-10T16:15:01.691Z,32.54
2022-09-10T16:17:34.909Z,32.75
2022-09-10T16:20:09.164Z,32.86
2022-09-10T16:22:41.898Z,32.94
2022-09-10T16:25:15.350Z,33.06
2022-09-10T16:27:48.570Z,33.19
2022-09-10T16:30:21.486Z,33.32
2022-09-10T16:32:55.752Z,33.40
2022-09-10T16:35:28.800Z,33.49
2022-09-10T16:38:01.771Z,33.63
2022-09-10T16:40:34.957Z,33.82
2022-09-10T16:43:07.980Z,34.01
2022-09-10T16:45:42.695Z,34.20
2022-09-10T16:48:16.451Z,34.43
2022-09-10T16:50:49.345Z,34.62
2022-09-10T16:53:22.438Z,34.87
2022-09-10T16:56:01.510Z,35.04
2022-09-10T16:58:36.080Z,35.40
2022-09-10T17:01:10.796Z,35.96
2022-09-10T17:03:46.767Z,36.08
2022-09-10T17:06:24.766Z,36.29
2022-09-10T17:09:00.822Z,36.65
2022-09-10T17:11:35.849Z,36.69
2022-09-10T17:14:11.726Z,36.88
2022-09-10T17:16:45.264Z,37.48
2022-09-10T17:19:26.105Z,37.73
2022-09-10T17:21:59.723Z,37.51
2022-09-10T17:24:32.638Z,37.85
2022-09-10T17:27:05.684Z,37.83
2022-09-10T17:29:39.406Z,37.97
2022-09-10T17:32:12.591Z,38.06
2022-09-10T17:34:47.943Z,38.01
2022-09-10T17:37:21.164Z,38.05
2022-09-10T17:39:55.416Z,38.20
2022-09-10T17:42:28.775Z,38.37
2022-09-10T17:45:02.518Z,38.60
2022-09-10T17:47:35.402Z,38.74
2022-09-10T17:50:09.666Z,39.05
2022-09-10T17:52:44.624Z,39.34
2022-09-10T17:55:19.016Z,39.34
2022-09-10T17:57:51.747Z,39.66
2022-09-10T18:00:24.582Z,39.82
2022-09-10T18:02:57.980Z,39.36
2022-09-10T18:05:31.001Z,39.17
2022-09-10T18:08:04.610Z,39.20
2022-09-10T18:10:38.183Z,39.06
2022-09-10T18:13:11.073Z,39.39
2022-09-10T18:15:46.298Z,39.29
2022-09-10T18:18:19.760Z,39.31
2022-09-10T18:20:52.873Z,39.48
2022-09-10T18:23:26.243Z,39.63
2022-09-10T18:26:00.405Z,39.81
2022-09-10T18:28:33.755Z,39.87
2022-09-10T18:31:07.020Z,40.02
2022-09-10T18:33:41.747Z,40.19
2022-09-10T18:36:19.603Z,40.45
2022-09-10T18:38:53.424Z,40.58
2022-09-10T18:41:32.189Z,40.75
2022-09-10T18:44:08.211Z,41.04
2022-09-10T18:46:41.094Z,41.08
2022-09-10T18:49:21.382Z,41.18
2022-09-10T18:51:57.585Z,41.18
2022-09-10T18:54:30.738Z,41.31
2022-09-10T18:57:03.930Z,41.26
2022-09-10T18:59:38.641Z,41.45
2022-09-10T19:02:13.311Z,41.49
2022-09-10T19:05:09.716Z,41.73
2022-09-10T19:07:22.075Z,41.93
2022-09-10T19:09:54.801Z,42.17
2022-09-10T19:12:28.876Z,42.33
2022-09-10T19:15:01.887Z,42.45
2022-09-10T19:17:35.080Z,42.56
2022-09-10T19:20:09.979Z,42.72
2022-09-10T19:22:44.107Z,42.86
2022-09-10T19:25:17.074Z,43.06
2022-09-10T19:27:50.555Z,43.12
2022-09-10T19:30:23.378Z,43.28
2022-09-10T19:32:56.552Z,43.38
2022-09-10T19:35:30.067Z,43.54
2022-09-10T19:38:21.061Z,43.67
2022-09-10T19:40:38.139Z,43.98
2022-09-10T19:43:12.820Z,44.16
2022-09-10T19:45:45.706Z,44.20
2022-09-10T19:48:20.273Z,44.30
2022-09-10T19:50:53.497Z,44.66
2022-09-10T19:53:27.052Z,45.05
2022-09-10T19:56:11.865Z,44.93
2022-09-10T19:58:46.526Z,45.14
2022-09-10T20:01:23.979Z,45.16
2022-09-10T20:03:57.360Z,45.61
2022-09-10T20:06:31.400Z,45.75
2022-09-10T20:09:06.585Z,45.87
2022-09-10T20:11:39.981Z,46.01
2022-09-10T20:14:15.760Z,46.07
2022-09-10T20:16:48.561Z,46.30
2022-09-10T20:19:22.377Z,46.38
2022-09-10T20:21:55.327Z,46.64
2022-09-10T20:24:28.612Z,46.63
2022-09-10T20:27:01.601Z,46.64
2022-09-10T20:29:34.770Z,46.56
2022-09-10T20:32:08.729Z,46.49
2022-09-10T20:34:41.620Z,46.45
2022-09-10T20:37:14.502Z,46.31
2022-09-10T20:39:48.730Z,46.19
2022-09-10T20:42:22.300Z,46.11
2022-09-10T20:44:57.050Z,46.06
2022-09-10T20:47:31.621Z,45.95
2022-09-10T20:50:04.529Z,45.88
2022-09-10T20:52:38.500Z,45.83
2022-09-10T20:55:12.134Z,45.84
2022-09-10T20:57:45.492Z,45.86
2022-09-10T21:00:18.585Z,45.75
2022-09-10T21:02:51.863Z,45.75
2022-09-10T21:05:24.624Z,45.66
2022-09-10T21:07:57.934Z,45.69
2022-09-10T21:10:30.853Z,45.71
2022-09-10T21:13:05.044Z,45.69
2022-09-10T21:15:38.328Z,45.72
2022-09-10T21:18:11.464Z,45.85
2022-09-10T21:20:44.337Z,45.88
2022-09-10T21:23:18.168Z,45.97
2022-09-10T21:25:53.697Z,45.99
2022-09-10T21:28:27.496Z,46.03
2022-09-10T21:31:05.716Z,46.11
2022-09-10T21:33:39.249Z,46.13
2022-09-10T21:36:18.927Z,46.12
2022-09-10T21:38:57.824Z,46.05
2022-09-10T21:41:37.942Z,46.03
2022-09-10T21:44:17.009Z,45.99
2022-09-10T21:46:51.693Z,45.92
2022-09-10T21:49:24.487Z,45.88
2022-09-10T21:51:57.785Z,45.83
2022-09-10T21:54:30.694Z,45.70
2022-09-10T21:57:04.485Z,45.55
2022-09-10T21:59:38.031Z,45.40
2022-09-10T22:02:11.723Z,45.28
2022-09-10T22:04:44.571Z,45.27
2022-09-10T22:07:17.642Z,45.13
2022-09-10T22:09:51.038Z,44.95
2022-09-10T22:12:25.352Z,44.68
2022-09-10T22:14:58.478Z,44.43
2022-09-10T22:17:31.304Z,44.22
2022-09-10T22:20:05.662Z,44.00
2022-09-10T22:22:39.668Z,43.79
2022-09-10T22:25:12.826Z,43.62
2022-09-10T22:27:45.538Z,43.43
2022-09-10T22:30:18.927Z,43.46
2022-09-10T22:32:52.102Z,43.40
2022-09-10T22:35:31.329Z,43.50
2022-09-10T22:38:04.409Z,43.54
2022-09-10T22:40:38.169Z,43.58
2022-09-10T22:43:11.002Z,43.72
2022-09-10T22:45:43.918Z,43.73
2022-09-10T22:48:16.963Z,43.83
2022-09-10T22:50:50.245Z,43.95
2022-09-10T22:53:22.958Z,44.03
2022-09-10T22:55:56.323Z,44.04
2022-09-10T22:58:29.515Z,44.07
2022-09-10T23:01:17.187Z,44.06
2022-09-10T23:03:50.071Z,44.03
2022-09-10T23:06:25.076Z,44.14
2022-09-10T23:09:11.828Z,44.21
2022-09-10T23:11:46.361Z,44.23
2022-09-10T23:14:22.243Z,44.31
2022-09-10T23:16:55.731Z,44.25
2022-09-10T23:19:30.052Z,44.33
2022-09-10T23:22:04.087Z,44.34
2022-09-10T23:24:36.835Z,44.28
2022-09-10T23:27:09.845Z,44.39
2022-09-10T23:29:43.231Z,44.32
2022-09-10T23:32:16.197Z,44.34
2022-09-10T23:34:50.747Z,44.37
2022-09-10T23:37:25.142Z,44.45
2022-09-10T23:39:58.081Z,44.51
2022-09-10T23:42:31.507Z,44.46
2022-09-10T23:45:04.288Z,44.49
2022-09-10T23:47:37.994Z,44.44
2022-09-10T23:50:11.235Z,44.45
2022-09-10T23:52:44.455Z,44.45
2022-09-10T23:55:17.313Z,44.59
2022-09-10T23:57:51.080Z,44.63
